sensor_id;sensor_type;location;lat;lon;timestamp;temperature;humidity
31819;DHT22;18384;48.860;9.188;2023-04-30T00:02:00;13.40;99.90
31819;DHT22;18384;48.860;9.188;2023-04-30T00:04:27;13.40;99.90
31819;DHT22;18384;48.860;9.188;2023-04-30T00:06:53;13.40;99.90
31819;DHT22;18384;48.860;9.188;2023-04-30T00:09:20;13.50;99.90
31819;DHT22;18384;48.860;9.188;2023-04-30T00:11:46;13.40;99.90
31819;DHT22;18384;48.860;9.188;2023-04-30T00:14:12;13.50;99.90
31819;DHT22;18384;48.860;9.188;2023-04-30T00:16:38;13.50;99.90
31819;DHT22;18384;48.860;9.188;2023-04-30T00:19:04;13.50;99.90
31819;DHT22;18384;48.860;9.188;2023-04-30T00:21:30;13.50;99.90
31819;DHT22;18384;48.860;9.188;2023-04-30T00:23:56;13.50;99.90
31819;DHT22;18384;48.860;9.188;2023-04-30T00:26:25;13.50;99.90
31819;DHT22;18384;48.860;9.188;2023-04-30T00:28:51;13.50;99.90
31819;DHT22;18384;48.860;9.188;2023-04-30T00:31:17;13.40;99.90
31819;DHT22;18384;48.860;9.188;2023-04-30T00:33:43;13.50;99.90
31819;DHT22;18384;48.860;9.188;2023-04-30T00:36:09;13.50;99.90
31819;DHT22;18384;48.860;9.188;2023-04-30T00:38:35;13.50;99.90
31819;DHT22;18384;48.860;9.188;2023-04-30T00:41:01;13.50;99.90
31819;DHT22;18384;48.860;9.188;2023-04-30T00:43:27;13.50;99.90
31819;DHT22;18384;48.860;9.188;2023-04-30T00:45:53;13.50;99.90
31819;DHT22;18384;48.860;9.188;2023-04-30T00:48:19;13.50;99.90
31819;DHT22;18384;48.860;9.188;2023-04-30T00:50:46;13.50;99.90
31819;DHT22;18384;48.860;9.188;2023-04-30T00:53:12;13.50;99.90
31819;DHT22;18384;48.860;9.188;2023-04-30T00:55:42;13.50;99.90
31819;DHT22;18384;48.860;9.188;2023-04-30T00:58:09;13.40;99.90
31819;DHT22;18384;48.860;9.188;2023-04-30T01:00:35;13.50;99.90
31819;DHT22;18384;48.860;9.188;2023-04-30T01:03:01;13.40;99.90
31819;DHT22;18384;48.860;9.188;2023-04-30T01:05:27;13.40;99.90
31819;DHT22;18384;48.860;9.188;2023-04-30T01:07:55;13.40;99.90
31819;DHT22;18384;48.860;9.188;2023-04-30T01:10:31;13.40;99.90
31819;DHT22;18384;48.860;9.188;2023-04-30T01:13:09;13.30;99.90
31819;DHT22;18384;48.860;9.188;2023-04-30T01:15:58;13.30;99.90
31819;DHT22;18384;48.860;9.188;2023-04-30T01:20:18;13.30;99.90
31819;DHT22;18384;48.860;9.188;2023-04-30T01:23:13;13.20;99.90
31819;DHT22;18384;48.860;9.188;2023-04-30T01:27:30;13.30;99.90
31819;DHT22;18384;48.860;9.188;2023-04-30T01:33:28;13.20;99.90
31819;DHT22;18384;48.860;9.188;2023-04-30T01:45:12;13.20;99.90
31819;DHT22;18384;48.860;9.188;2023-04-30T01:48:18;13.10;99.90
31819;DHT22;18384;48.860;9.188;2023-04-30T01:51:41;13.00;99.90
31819;DHT22;18384;48.860;9.188;2023-04-30T01:54:44;13.00;99.90
31819;DHT22;18384;48.860;9.188;2023-04-30T01:57:33;12.90;99.90
31819;DHT22;18384;48.860;9.188;2023-04-30T02:00:04;12.90;99.90
31819;DHT22;18384;48.860;9.188;2023-04-30T02:02:30;12.90;99.90
31819;DHT22;18384;48.860;9.188;2023-04-30T02:04:57;12.80;99.90
31819;DHT22;18384;48.860;9.188;2023-04-30T02:07:43;12.90;99.90
31819;DHT22;18384;48.860;9.188;2023-04-30T02:10:10;12.90;99.90
31819;DHT22;18384;48.860;9.188;2023-04-30T02:12:37;13.00;99.90
31819;DHT22;18384;48.860;9.188;2023-04-30T02:15:04;13.00;99.90
31819;DHT22;18384;48.860;9.188;2023-04-30T02:17:31;13.00;99.90
31819;DHT22;18384;48.860;9.188;2023-04-30T02:19:58;13.00;99.90
31819;DHT22;18384;48.860;9.188;2023-04-30T02:22:25;13.00;99.90
31819;DHT22;18384;48.860;9.188;2023-04-30T02:24:51;13.00;99.90
31819;DHT22;18384;48.860;9.188;2023-04-30T02:27:21;13.00;99.90
31819;DHT22;18384;48.860;9.188;2023-04-30T02:29:48;13.10;99.90
31819;DHT22;18384;48.860;9.188;2023-04-30T02:32:14;13.00;99.90
31819;DHT22;18384;48.860;9.188;2023-04-30T02:34:40;13.00;99.90
31819;DHT22;18384;48.860;9.188;2023-04-30T02:37:07;13.00;99.90
31819;DHT22;18384;48.860;9.188;2023-04-30T02:39:33;13.00;99.90
31819;DHT22;18384;48.860;9.188;2023-04-30T02:41:59;12.90;99.90
31819;DHT22;18384;48.860;9.188;2023-04-30T02:44:26;12.90;99.90
31819;DHT22;18384;48.860;9.188;2023-04-30T02:46:53;12.90;99.90
31819;DHT22;18384;48.860;9.188;2023-04-30T02:49:19;12.90;99.90
31819;DHT22;18384;48.860;9.188;2023-04-30T02:51:45;12.80;99.90
31819;DHT22;18384;48.860;9.188;2023-04-30T02:54:11;12.80;99.90
31819;DHT22;18384;48.860;9.188;2023-04-30T02:56:37;12.70;99.90
31819;DHT22;18384;48.860;9.188;2023-04-30T02:59:04;12.70;99.90
31819;DHT22;18384;48.860;9.188;2023-04-30T03:01:30;12.70;99.90
31819;DHT22;18384;48.860;9.188;2023-04-30T03:03:56;12.70;99.90
31819;DHT22;18384;48.860;9.188;2023-04-30T03:06:43;12.70;99.90
31819;DHT22;18384;48.860;9.188;2023-04-30T03:09:10;12.70;99.90
31819;DHT22;18384;48.860;9.188;2023-04-30T03:11:36;12.70;99.90
31819;DHT22;18384;48.860;9.188;2023-04-30T03:14:03;12.60;99.90
31819;DHT22;18384;48.860;9.188;2023-04-30T03:16:29;12.60;99.90
31819;DHT22;18384;48.860;9.188;2023-04-30T03:18:55;12.70;99.90
31819;DHT22;18384;48.860;9.188;2023-04-30T03:21:21;12.70;99.90
31819;DHT22;18384;48.860;9.188;2023-04-30T03:23:47;12.70;99.90
31819;DHT22;18384;48.860;9.188;2023-04-30T03:26:14;12.70;99.90
31819;DHT22;18384;48.860;9.188;2023-04-30T03:28:40;12.70;99.90
31819;DHT22;18384;48.860;9.188;2023-04-30T03:31:06;12.70;99.90
31819;DHT22;18384;48.860;9.188;2023-04-30T03:33:32;12.70;99.90
31819;DHT22;18384;48.860;9.188;2023-04-30T03:35:58;12.70;99.90
31819;DHT22;18384;48.860;9.188;2023-04-30T03:38:24;12.80;99.90
31819;DHT22;18384;48.860;9.188;2023-04-30T03:40:51;12.70;99.90
31819;DHT22;18384;48.860;9.188;2023-04-30T03:43:17;12.80;99.90
31819;DHT22;18384;48.860;9.188;2023-04-30T03:45:43;12.70;99.90
31819;DHT22;18384;48.860;9.188;2023-04-30T03:48:09;12.70;99.90
31819;DHT22;18384;48.860;9.188;2023-04-30T03:50:35;12.70;99.90
31819;DHT22;18384;48.860;9.188;2023-04-30T03:53:01;12.60;99.90
31819;DHT22;18384;48.860;9.188;2023-04-30T03:55:27;12.60;99.90
31819;DHT22;18384;48.860;9.188;2023-04-30T03:57:54;12.60;99.90
31819;DHT22;18384;48.860;9.188;2023-04-30T04:00:20;12.60;99.90
31819;DHT22;18384;48.860;9.188;2023-04-30T04:02:46;12.60;99.90
31819;DHT22;18384;48.860;9.188;2023-04-30T04:05:12;12.60;99.90
31819;DHT22;18384;48.860;9.188;2023-04-30T04:07:38;12.70;99.90
31819;DHT22;18384;48.860;9.188;2023-04-30T04:10:05;12.70;99.90
31819;DHT22;18384;48.860;9.188;2023-04-30T04:12:32;12.70;99.90
31819;DHT22;18384;48.860;9.188;2023-04-30T04:14:58;12.70;99.90
31819;DHT22;18384;48.860;9.188;2023-04-30T04:17:24;12.70;99.90
31819;DHT22;18384;48.860;9.188;2023-04-30T04:19:50;12.70;99.90
31819;DHT22;18384;48.860;9.188;2023-04-30T04:22:16;12.70;99.90
31819;DHT22;18384;48.860;9.188;2023-04-30T04:24:43;12.70;99.90
31819;DHT22;18384;48.860;9.188;2023-04-30T04:27:09;12.70;99.90
31819;DHT22;18384;48.860;9.188;2023-04-30T04:29:35;12.70;99.90
31819;DHT22;18384;48.860;9.188;2023-04-30T04:32:01;12.80;99.90
31819;DHT22;18384;48.860;9.188;2023-04-30T04:34:31;12.80;99.90
31819;DHT22;18384;48.860;9.188;2023-04-30T04:36:57;12.80;99.90
31819;DHT22;18384;48.860;9.188;2023-04-30T04:39:23;12.80;99.90
31819;DHT22;18384;48.860;9.188;2023-04-30T04:41:49;12.80;99.90
31819;DHT22;18384;48.860;9.188;2023-04-30T04:44:15;12.80;99.90
31819;DHT22;18384;48.860;9.188;2023-04-30T04:46:42;12.80;99.90
31819;DHT22;18384;48.860;9.188;2023-04-30T04:49:09;12.80;99.90
31819;DHT22;18384;48.860;9.188;2023-04-30T04:51:35;12.80;99.90
31819;DHT22;18384;48.860;9.188;2023-04-30T04:54:01;12.80;99.90
31819;DHT22;18384;48.860;9.188;2023-04-30T04:56:27;12.80;99.90
31819;DHT22;18384;48.860;9.188;2023-04-30T04:58:53;12.70;99.90
31819;DHT22;18384;48.860;9.188;2023-04-30T05:01:19;12.70;99.90
31819;DHT22;18384;48.860;9.188;2023-04-30T05:03:45;12.80;99.90
31819;DHT22;18384;48.860;9.188;2023-04-30T05:06:12;12.80;99.90
31819;DHT22;18384;48.860;9.188;2023-04-30T05:08:38;12.80;99.90
31819;DHT22;18384;48.860;9.188;2023-04-30T05:11:04;12.80;99.90
31819;DHT22;18384;48.860;9.188;2023-04-30T05:13:30;12.90;99.90
31819;DHT22;18384;48.860;9.188;2023-04-30T05:15:56;12.90;99.90
31819;DHT22;18384;48.860;9.188;2023-04-30T05:18:22;12.90;99.90
31819;DHT22;18384;48.860;9.188;2023-04-30T05:20:48;12.90;99.90
31819;DHT22;18384;48.860;9.188;2023-04-30T05:23:14;13.00;99.90
31819;DHT22;18384;48.860;9.188;2023-04-30T05:25:40;13.00;99.90
31819;DHT22;18384;48.860;9.188;2023-04-30T05:28:07;13.10;99.90
31819;DHT22;18384;48.860;9.188;2023-04-30T05:30:33;13.10;99.90
31819;DHT22;18384;48.860;9.188;2023-04-30T05:32:59;13.10;99.90
31819;DHT22;18384;48.860;9.188;2023-04-30T05:35:25;13.10;99.90
31819;DHT22;18384;48.860;9.188;2023-04-30T05:37:51;13.10;99.90
31819;DHT22;18384;48.860;9.188;2023-04-30T05:40:17;13.10;99.90
31819;DHT22;18384;48.860;9.188;2023-04-30T05:42:43;13.20;99.90
31819;DHT22;18384;48.860;9.188;2023-04-30T05:45:10;13.20;99.90
31819;DHT22;18384;48.860;9.188;2023-04-30T05:47:39;13.30;99.90
31819;DHT22;18384;48.860;9.188;2023-04-30T05:50:06;13.30;99.90
31819;DHT22;18384;48.860;9.188;2023-04-30T05:52:33;13.30;99.90
31819;DHT22;18384;48.860;9.188;2023-04-30T05:54:59;13.30;99.90
31819;DHT22;18384;48.860;9.188;2023-04-30T05:57:25;13.30;99.90
31819;DHT22;18384;48.860;9.188;2023-04-30T05:59:51;13.40;99.90
31819;DHT22;18384;48.860;9.188;2023-04-30T06:02:18;13.40;99.80
31819;DHT22;18384;48.860;9.188;2023-04-30T06:04:44;13.40;99.90
31819;DHT22;18384;48.860;9.188;2023-04-30T06:07:12;13.40;99.70
31819;DHT22;18384;48.860;9.188;2023-04-30T06:09:38;13.50;99.70
31819;DHT22;18384;48.860;9.188;2023-04-30T06:12:04;13.60;99.70
31819;DHT22;18384;48.860;9.188;2023-04-30T06:14:31;13.70;99.40
31819;DHT22;18384;48.860;9.188;2023-04-30T06:16:56;13.70;99.70
31819;DHT22;18384;48.860;9.188;2023-04-30T06:19:23;13.80;99.40
31819;DHT22;18384;48.860;9.188;2023-04-30T06:21:49;13.90;99.10
31819;DHT22;18384;48.860;9.188;2023-04-30T06:24:15;14.00;99.10
31819;DHT22;18384;48.860;9.188;2023-04-30T06:26:41;14.10;99.20
31819;DHT22;18384;48.860;9.188;2023-04-30T06:29:07;14.10;98.50
31819;DHT22;18384;48.860;9.188;2023-04-30T06:31:33;14.10;98.70
31819;DHT22;18384;48.860;9.188;2023-04-30T06:33:59;14.10;98.50
31819;DHT22;18384;48.860;9.188;2023-04-30T06:36:25;14.20;98.40
31819;DHT22;18384;48.860;9.188;2023-04-30T06:38:51;14.30;98.40
31819;DHT22;18384;48.860;9.188;2023-04-30T06:41:18;14.30;98.20
31819;DHT22;18384;48.860;9.188;2023-04-30T06:43:44;14.30;98.50
31819;DHT22;18384;48.860;9.188;2023-04-30T06:46:10;14.20;98.20
31819;DHT22;18384;48.860;9.188;2023-04-30T06:48:36;14.20;98.30
31819;DHT22;18384;48.860;9.188;2023-04-30T06:51:02;14.30;98.60
31819;DHT22;18384;48.860;9.188;2023-04-30T06:53:28;14.30;98.50
31819;DHT22;18384;48.860;9.188;2023-04-30T06:55:54;14.40;98.00
31819;DHT22;18384;48.860;9.188;2023-04-30T06:58:21;14.50;98.10
31819;DHT22;18384;48.860;9.188;2023-04-30T07:00:47;14.50;97.90
31819;DHT22;18384;48.860;9.188;2023-04-30T07:03:13;14.50;97.80
31819;DHT22;18384;48.860;9.188;2023-04-30T07:05:39;14.50;97.50
31819;DHT22;18384;48.860;9.188;2023-04-30T07:08:06;14.50;97.60
31819;DHT22;18384;48.860;9.188;2023-04-30T07:10:32;14.50;97.50
31819;DHT22;18384;48.860;9.188;2023-04-30T07:12:58;14.60;97.60
31819;DHT22;18384;48.860;9.188;2023-04-30T07:15:24;14.60;97.70
31819;DHT22;18384;48.860;9.188;2023-04-30T07:17:50;14.70;97.40
31819;DHT22;18384;48.860;9.188;2023-04-30T07:20:16;14.80;97.80
31819;DHT22;18384;48.860;9.188;2023-04-30T07:22:43;14.90;97.40
31819;DHT22;18384;48.860;9.188;2023-04-30T07:25:11;15.10;97.60
31819;DHT22;18384;48.860;9.188;2023-04-30T07:27:38;15.20;96.90
31819;DHT22;18384;48.860;9.188;2023-04-30T07:30:05;15.20;96.40
31819;DHT22;18384;48.860;9.188;2023-04-30T07:32:34;15.20;96.60
31819;DHT22;18384;48.860;9.188;2023-04-30T07:35:00;15.10;96.40
31819;DHT22;18384;48.860;9.188;2023-04-30T07:37:26;15.00;97.00
31819;DHT22;18384;48.860;9.188;2023-04-30T07:39:53;15.00;96.60
31819;DHT22;18384;48.860;9.188;2023-04-30T07:42:19;14.90;96.80
31819;DHT22;18384;48.860;9.188;2023-04-30T07:44:45;15.00;97.10
31819;DHT22;18384;48.860;9.188;2023-04-30T07:47:13;14.90;96.50
31819;DHT22;18384;48.860;9.188;2023-04-30T07:49:39;14.90;96.80
31819;DHT22;18384;48.860;9.188;2023-04-30T07:52:05;15.00;96.70
31819;DHT22;18384;48.860;9.188;2023-04-30T07:54:35;14.90;96.60
31819;DHT22;18384;48.860;9.188;2023-04-30T07:57:03;15.00;96.70
31819;DHT22;18384;48.860;9.188;2023-04-30T07:59:30;15.10;96.50
31819;DHT22;18384;48.860;9.188;2023-04-30T08:01:56;15.10;96.50
31819;DHT22;18384;48.860;9.188;2023-04-30T08:04:22;15.20;96.50
31819;DHT22;18384;48.860;9.188;2023-04-30T08:06:48;15.30;97.10
31819;DHT22;18384;48.860;9.188;2023-04-30T08:09:15;15.30;96.30
31819;DHT22;18384;48.860;9.188;2023-04-30T08:11:41;15.40;96.40
31819;DHT22;18384;48.860;9.188;2023-04-30T08:14:07;15.40;95.60
31819;DHT22;18384;48.860;9.188;2023-04-30T08:16:33;15.50;96.00
31819;DHT22;18384;48.860;9.188;2023-04-30T08:18:59;15.50;95.60
31819;DHT22;18384;48.860;9.188;2023-04-30T08:21:25;15.50;94.90
31819;DHT22;18384;48.860;9.188;2023-04-30T08:23:55;15.60;95.50
31819;DHT22;18384;48.860;9.188;2023-04-30T08:26:21;14.90;94.50
31819;DHT22;18384;48.860;9.188;2023-04-30T08:28:47;15.50;94.40
31819;DHT22;18384;48.860;9.188;2023-04-30T08:31:14;15.60;94.40
31819;DHT22;18384;48.860;9.188;2023-04-30T08:33:40;15.60;94.30
31819;DHT22;18384;48.860;9.188;2023-04-30T08:36:06;16.10;94.30
31819;DHT22;18384;48.860;9.188;2023-04-30T08:38:32;15.90;94.00
31819;DHT22;18384;48.860;9.188;2023-04-30T08:41:10;15.90;93.80
31819;DHT22;18384;48.860;9.188;2023-04-30T08:43:37;15.90;93.00
31819;DHT22;18384;48.860;9.188;2023-04-30T08:46:04;15.90;93.60
31819;DHT22;18384;48.860;9.188;2023-04-30T08:48:31;16.00;93.90
31819;DHT22;18384;48.860;9.188;2023-04-30T08:51:01;16.10;93.10
31819;DHT22;18384;48.860;9.188;2023-04-30T08:53:28;16.20;92.40
31819;DHT22;18384;48.860;9.188;2023-04-30T08:55:55;16.20;91.90
31819;DHT22;18384;48.860;9.188;2023-04-30T08:58:21;16.20;91.90
31819;DHT22;18384;48.860;9.188;2023-04-30T09:00:47;16.30;91.80
31819;DHT22;18384;48.860;9.188;2023-04-30T09:03:13;16.20;91.30
31819;DHT22;18384;48.860;9.188;2023-04-30T09:05:39;16.20;91.30
31819;DHT22;18384;48.860;9.188;2023-04-30T09:08:06;16.20;91.30
31819;DHT22;18384;48.860;9.188;2023-04-30T09:10:33;16.30;91.40
31819;DHT22;18384;48.860;9.188;2023-04-30T09:13:09;16.30;91.30
31819;DHT22;18384;48.860;9.188;2023-04-30T09:15:38;16.30;90.90
31819;DHT22;18384;48.860;9.188;2023-04-30T09:18:18;16.30;90.90
31819;DHT22;18384;48.860;9.188;2023-04-30T09:20:57;16.20;90.90
31819;DHT22;18384;48.860;9.188;2023-04-30T09:23:25;16.30;91.00
31819;DHT22;18384;48.860;9.188;2023-04-30T09:25:51;16.30;90.70
31819;DHT22;18384;48.860;9.188;2023-04-30T09:28:17;16.40;90.90
31819;DHT22;18384;48.860;9.188;2023-04-30T09:30:48;16.50;91.40
31819;DHT22;18384;48.860;9.188;2023-04-30T09:33:15;16.60;90.60
31819;DHT22;18384;48.860;9.188;2023-04-30T09:35:41;16.70;90.60
31819;DHT22;18384;48.860;9.188;2023-04-30T09:38:27;16.70;90.40
31819;DHT22;18384;48.860;9.188;2023-04-30T09:40:56;16.80;90.60
31819;DHT22;18384;48.860;9.188;2023-04-30T09:43:23;16.90;90.50
31819;DHT22;18384;48.860;9.188;2023-04-30T09:45:49;17.00;90.00
31819;DHT22;18384;48.860;9.188;2023-04-30T09:48:26;17.00;90.00
31819;DHT22;18384;48.860;9.188;2023-04-30T09:50:56;16.90;88.90
31819;DHT22;18384;48.860;9.188;2023-04-30T09:53:22;16.90;89.30
31819;DHT22;18384;48.860;9.188;2023-04-30T09:55:50;16.90;89.60
31819;DHT22;18384;48.860;9.188;2023-04-30T09:58:17;16.70;89.30
31819;DHT22;18384;48.860;9.188;2023-04-30T10:00:45;16.80;89.60
31819;DHT22;18384;48.860;9.188;2023-04-30T10:03:13;16.80;88.60
31819;DHT22;18384;48.860;9.188;2023-04-30T10:05:47;16.80;88.30
31819;DHT22;18384;48.860;9.188;2023-04-30T10:08:27;16.80;88.40
31819;DHT22;18384;48.860;9.188;2023-04-30T10:11:03;16.90;89.20
31819;DHT22;18384;48.860;9.188;2023-04-30T10:13:36;17.00;88.10
31819;DHT22;18384;48.860;9.188;2023-04-30T10:17:02;17.00;88.40
31819;DHT22;18384;48.860;9.188;2023-04-30T10:19:35;17.10;88.60
31819;DHT22;18384;48.860;9.188;2023-04-30T10:22:06;17.00;88.50
31819;DHT22;18384;48.860;9.188;2023-04-30T10:24:32;17.10;89.00
31819;DHT22;18384;48.860;9.188;2023-04-30T10:26:59;17.20;88.60
31819;DHT22;18384;48.860;9.188;2023-04-30T10:29:25;17.30;88.00
31819;DHT22;18384;48.860;9.188;2023-04-30T10:31:52;17.30;87.00
31819;DHT22;18384;48.860;9.188;2023-04-30T10:34:30;17.30;87.00
31819;DHT22;18384;48.860;9.188;2023-04-30T10:37:50;17.30;86.00
31819;DHT22;18384;48.860;9.188;2023-04-30T10:40:19;17.30;87.30
31819;DHT22;18384;48.860;9.188;2023-04-30T10:42:48;17.50;87.80
31819;DHT22;18384;48.860;9.188;2023-04-30T10:45:17;17.60;87.50
31819;DHT22;18384;48.860;9.188;2023-04-30T10:47:45;17.70;86.00
31819;DHT22;18384;48.860;9.188;2023-04-30T10:50:11;17.80;87.40
31819;DHT22;18384;48.860;9.188;2023-04-30T10:52:38;17.70;85.00
31819;DHT22;18384;48.860;9.188;2023-04-30T10:55:05;17.80;85.50
31819;DHT22;18384;48.860;9.188;2023-04-30T10:57:42;17.70;84.60
31819;DHT22;18384;48.860;9.188;2023-04-30T11:00:24;17.60;84.20
31819;DHT22;18384;48.860;9.188;2023-04-30T11:02:56;17.60;85.60
31819;DHT22;18384;48.860;9.188;2023-04-30T11:05:38;17.70;86.00
31819;DHT22;18384;48.860;9.188;2023-04-30T11:08:04;17.80;85.30
31819;DHT22;18384;48.860;9.188;2023-04-30T11:10:34;18.90;84.10
31819;DHT22;18384;48.860;9.188;2023-04-30T11:13:04;17.80;86.60
31819;DHT22;18384;48.860;9.188;2023-04-30T11:15:39;17.90;84.40
31819;DHT22;18384;48.860;9.188;2023-04-30T11:18:07;18.00;83.30
31819;DHT22;18384;48.860;9.188;2023-04-30T11:20:47;18.00;83.50
31819;DHT22;18384;48.860;9.188;2023-04-30T11:23:16;18.10;83.80
31819;DHT22;18384;48.860;9.188;2023-04-30T11:25:47;18.30;85.00
31819;DHT22;18384;48.860;9.188;2023-04-30T11:28:24;18.20;82.60
31819;DHT22;18384;48.860;9.188;2023-04-30T11:30:58;18.30;83.30
31819;DHT22;18384;48.860;9.188;2023-04-30T11:33:28;18.20;83.00
31819;DHT22;18384;48.860;9.188;2023-04-30T11:35:57;18.20;82.20
31819;DHT22;18384;48.860;9.188;2023-04-30T11:38:33;18.30;83.40
31819;DHT22;18384;48.860;9.188;2023-04-30T11:41:01;18.30;82.40
31819;DHT22;18384;48.860;9.188;2023-04-30T11:43:29;18.20;81.70
31819;DHT22;18384;48.860;9.188;2023-04-30T11:46:08;18.10;81.40
31819;DHT22;18384;48.860;9.188;2023-04-30T11:48:39;18.00;81.60
31819;DHT22;18384;48.860;9.188;2023-04-30T11:51:22;18.00;82.80
31819;DHT22;18384;48.860;9.188;2023-04-30T11:53:50;18.20;83.70
31819;DHT22;18384;48.860;9.188;2023-04-30T11:56:21;18.20;81.40
31819;DHT22;18384;48.860;9.188;2023-04-30T11:58:50;18.30;82.40
31819;DHT22;18384;48.860;9.188;2023-04-30T12:01:16;18.30;82.40
31819;DHT22;18384;48.860;9.188;2023-04-30T12:03:44;18.40;81.80
31819;DHT22;18384;48.860;9.188;2023-04-30T12:06:23;18.40;82.90
31819;DHT22;18384;48.860;9.188;2023-04-30T12:08:54;18.30;81.90
31819;DHT22;18384;48.860;9.188;2023-04-30T12:11:26;18.30;83.00
31819;DHT22;18384;48.860;9.188;2023-04-30T12:14:07;18.50;82.70
31819;DHT22;18384;48.860;9.188;2023-04-30T12:16:43;18.50;81.70
31819;DHT22;18384;48.860;9.188;2023-04-30T12:19:17;18.50;81.50
31819;DHT22;18384;48.860;9.188;2023-04-30T12:21:45;18.50;81.80
31819;DHT22;18384;48.860;9.188;2023-04-30T12:24:16;18.50;82.00
31819;DHT22;18384;48.860;9.188;2023-04-30T12:26:44;18.30;81.00
31819;DHT22;18384;48.860;9.188;2023-04-30T12:29:15;18.20;83.50
31819;DHT22;18384;48.860;9.188;2023-04-30T12:31:43;18.30;83.70
31819;DHT22;18384;48.860;9.188;2023-04-30T12:34:13;18.50;81.50
31819;DHT22;18384;48.860;9.188;2023-04-30T12:36:40;18.50;81.90
31819;DHT22;18384;48.860;9.188;2023-04-30T12:39:11;18.60;80.90
31819;DHT22;18384;48.860;9.188;2023-04-30T12:41:48;18.60;82.00
31819;DHT22;18384;48.860;9.188;2023-04-30T12:44:22;18.70;79.40
31819;DHT22;18384;48.860;9.188;2023-04-30T12:46:54;18.60;79.50
31819;DHT22;18384;48.860;9.188;2023-04-30T12:49:29;18.50;81.20
31819;DHT22;18384;48.860;9.188;2023-04-30T12:52:03;18.50;80.70
31819;DHT22;18384;48.860;9.188;2023-04-30T12:54:34;18.50;80.10
31819;DHT22;18384;48.860;9.188;2023-04-30T12:57:03;18.60;83.00
31819;DHT22;18384;48.860;9.188;2023-04-30T12:59:31;18.60;79.60
31819;DHT22;18384;48.860;9.188;2023-04-30T13:02:09;18.50;80.90
31819;DHT22;18384;48.860;9.188;2023-04-30T13:04:38;18.50;79.50
31819;DHT22;18384;48.860;9.188;2023-04-30T13:07:07;18.50;80.20
31819;DHT22;18384;48.860;9.188;2023-04-30T13:09:34;18.40;79.10
31819;DHT22;18384;48.860;9.188;2023-04-30T13:12:02;18.30;79.20
31819;DHT22;18384;48.860;9.188;2023-04-30T13:14:29;18.20;81.00
31819;DHT22;18384;48.860;9.188;2023-04-30T13:16:55;18.30;82.00
31819;DHT22;18384;48.860;9.188;2023-04-30T13:19:21;18.30;80.80
31819;DHT22;18384;48.860;9.188;2023-04-30T13:21:47;18.30;79.50
31819;DHT22;18384;48.860;9.188;2023-04-30T13:24:14;18.30;80.00
31819;DHT22;18384;48.860;9.188;2023-04-30T13:26:40;18.30;80.50
31819;DHT22;18384;48.860;9.188;2023-04-30T13:29:06;18.20;79.70
31819;DHT22;18384;48.860;9.188;2023-04-30T13:31:32;18.20;79.80
31819;DHT22;18384;48.860;9.188;2023-04-30T13:33:59;18.20;79.90
31819;DHT22;18384;48.860;9.188;2023-04-30T13:36:25;18.20;80.20
31819;DHT22;18384;48.860;9.188;2023-04-30T13:38:51;18.20;80.00
31819;DHT22;18384;48.860;9.188;2023-04-30T13:41:17;18.30;80.10
31819;DHT22;18384;48.860;9.188;2023-04-30T13:43:45;18.30;79.60
31819;DHT22;18384;48.860;9.188;2023-04-30T13:46:13;18.40;79.30
31819;DHT22;18384;48.860;9.188;2023-04-30T13:48:39;18.50;79.10
31819;DHT22;18384;48.860;9.188;2023-04-30T13:51:06;18.60;79.40
31819;DHT22;18384;48.860;9.188;2023-04-30T13:53:32;18.60;79.20
31819;DHT22;18384;48.860;9.188;2023-04-30T13:56:00;18.70;78.80
31819;DHT22;18384;48.860;9.188;2023-04-30T13:58:27;18.60;79.20
31819;DHT22;18384;48.860;9.188;2023-04-30T14:00:53;18.60;79.80
31819;DHT22;18384;48.860;9.188;2023-04-30T14:03:20;18.50;78.40
31819;DHT22;18384;48.860;9.188;2023-04-30T14:05:46;18.60;79.40
31819;DHT22;18384;48.860;9.188;2023-04-30T14:08:12;18.60;78.20
31819;DHT22;18384;48.860;9.188;2023-04-30T14:10:38;18.60;77.40
31819;DHT22;18384;48.860;9.188;2023-04-30T14:13:04;18.60;77.90
31819;DHT22;18384;48.860;9.188;2023-04-30T14:15:30;18.70;77.60
31819;DHT22;18384;48.860;9.188;2023-04-30T14:17:57;18.60;77.90
31819;DHT22;18384;48.860;9.188;2023-04-30T14:20:24;18.60;79.50
31819;DHT22;18384;48.860;9.188;2023-04-30T14:22:51;18.50;77.90
31819;DHT22;18384;48.860;9.188;2023-04-30T14:25:17;18.40;78.00
31819;DHT22;18384;48.860;9.188;2023-04-30T14:27:43;18.40;78.90
31819;DHT22;18384;48.860;9.188;2023-04-30T14:30:10;18.40;79.20
31819;DHT22;18384;48.860;9.188;2023-04-30T14:32:36;18.20;79.80
31819;DHT22;18384;48.860;9.188;2023-04-30T14:35:02;18.20;79.40
31819;DHT22;18384;48.860;9.188;2023-04-30T14:37:29;18.20;79.70
31819;DHT22;18384;48.860;9.188;2023-04-30T14:39:55;18.20;80.00
31819;DHT22;18384;48.860;9.188;2023-04-30T14:42:23;18.10;79.40
31819;DHT22;18384;48.860;9.188;2023-04-30T14:44:49;18.10;80.00
31819;DHT22;18384;48.860;9.188;2023-04-30T14:47:15;18.00;79.70
31819;DHT22;18384;48.860;9.188;2023-04-30T14:49:41;17.20;79.50
31819;DHT22;18384;48.860;9.188;2023-04-30T14:52:07;18.20;80.50
31819;DHT22;18384;48.860;9.188;2023-04-30T14:54:33;18.20;81.20
31819;DHT22;18384;48.860;9.188;2023-04-30T14:56:59;18.40;80.40
31819;DHT22;18384;48.860;9.188;2023-04-30T14:59:26;18.90;78.50
31819;DHT22;18384;48.860;9.188;2023-04-30T15:01:52;18.50;80.00
31819;DHT22;18384;48.860;9.188;2023-04-30T15:04:18;18.50;78.40
31819;DHT22;18384;48.860;9.188;2023-04-30T15:06:44;18.30;77.30
31819;DHT22;18384;48.860;9.188;2023-04-30T15:09:11;18.30;79.70
31819;DHT22;18384;48.860;9.188;2023-04-30T15:11:38;18.20;77.90
31819;DHT22;18384;48.860;9.188;2023-04-30T15:14:04;18.20;78.30
31819;DHT22;18384;48.860;9.188;2023-04-30T15:16:30;18.20;78.80
31819;DHT22;18384;48.860;9.188;2023-04-30T15:18:56;18.20;80.30
31819;DHT22;18384;48.860;9.188;2023-04-30T15:21:23;18.20;78.80
31819;DHT22;18384;48.860;9.188;2023-04-30T15:23:49;18.10;79.20
31819;DHT22;18384;48.860;9.188;2023-04-30T15:26:15;18.10;80.70
31819;DHT22;18384;48.860;9.188;2023-04-30T15:28:41;18.10;79.80
31819;DHT22;18384;48.860;9.188;2023-04-30T15:31:08;18.10;80.70
31819;DHT22;18384;48.860;9.188;2023-04-30T15:33:35;18.10;79.50
31819;DHT22;18384;48.860;9.188;2023-04-30T15:36:06;18.10;79.40
31819;DHT22;18384;48.860;9.188;2023-04-30T15:38:33;18.10;80.00
31819;DHT22;18384;48.860;9.188;2023-04-30T15:40:59;18.10;79.80
31819;DHT22;18384;48.860;9.188;2023-04-30T15:43:25;18.10;80.30
31819;DHT22;18384;48.860;9.188;2023-04-30T15:45:52;18.10;79.30
31819;DHT22;18384;48.860;9.188;2023-04-30T15:48:18;18.10;78.50
31819;DHT22;18384;48.860;9.188;2023-04-30T15:50:44;18.10;78.60
31819;DHT22;18384;48.860;9.188;2023-04-30T15:53:10;18.10;78.80
31819;DHT22;18384;48.860;9.188;2023-04-30T15:55:36;18.10;79.60